createdAt,value
2022-10-11T00:02:03.994Z,3.88
2022-10-11T00:04:30.665Z,3.33
2022-10-11T00:06:57.317Z,3.17
2022-10-11T00:09:24.029Z,3.50
2022-10-11T00:11:50.682Z,3.53
2022-10-11T00:14:17.320Z,3.63
2022-10-11T00:16:44.539Z,3.67
2022-10-11T00:19:11.587Z,3.40
2022-10-11T00:21:38.713Z,3.13
2022-10-11T00:24:06.052Z,3.33
2022-10-11T00:26:32.938Z,4.00
2022-10-11T00:28:59.569Z,3.25
2022-10-11T00:31:26.270Z,2.92
2022-10-11T00:33:54.589Z,3.63
2022-10-11T00:36:21.940Z,3.60
2022-10-11T00:38:48.848Z,3.80
2022-10-11T00:41:16.492Z,3.60
2022-10-11T00:43:43.815Z,3.60
2022-10-11T00:46:19.217Z,3.45
2022-10-11T00:48:53.775Z,3.60
2022-10-11T00:51:28.686Z,3.70
2022-10-11T00:53:55.444Z,3.15
2022-10-11T00:56:31.178Z,3.30
2022-10-11T00:59:00.441Z,3.47
2022-10-11T01:01:27.392Z,3.35
2022-10-11T01:03:55.027Z,3.40
2022-10-11T01:06:21.655Z,3.47
2022-10-11T01:08:48.973Z,3.35
2022-10-11T01:11:19.455Z,3.80
2022-10-11T01:16:56.952Z,3.33
2022-10-11T01:19:47.703Z,4.05
2022-10-11T01:22:29.325Z,3.45
2022-10-11T01:25:12.801Z,3.20
2022-10-11T01:28:06.331Z,3.40
2022-10-11T01:30:35.027Z,3.42
2022-10-11T01:33:07.793Z,3.28
2022-10-11T01:35:34.382Z,2.92
2022-10-11T01:38:07.887Z,3.53
2022-10-11T01:40:40.291Z,3.50
2022-10-11T01:43:07.035Z,2.67
2022-10-11T01:45:35.199Z,3.35
2022-10-11T01:48:07.398Z,3.40
2022-10-11T01:50:36.767Z,3.45
2022-10-11T01:53:14.996Z,2.95
2022-10-11T01:56:12.901Z,2.85
2022-10-11T01:58:55.706Z,3.17
2022-10-11T02:01:37.002Z,2.90
2022-10-11T02:04:24.798Z,3.03
2022-10-11T02:07:02.852Z,3.08
2022-10-11T02:09:46.897Z,2.72
2022-10-11T02:12:21.652Z,4.05
2022-10-11T02:14:51.578Z,3.08
2022-10-11T02:17:22.814Z,3.10
2022-10-11T02:19:53.020Z,3.13
2022-10-11T02:22:27.870Z,2.80
2022-10-11T02:24:58.889Z,3.13
2022-10-11T02:27:29.634Z,2.97
2022-10-11T02:29:58.419Z,2.80
2022-10-11T02:32:26.126Z,3.20
2022-10-11T02:34:56.447Z,3.20
2022-10-11T02:37:30.119Z,3.35
2022-10-11T02:40:07.329Z,3.22
2022-10-11T02:42:39.935Z,3.03
2022-10-11T02:45:20.936Z,2.65
2022-10-11T02:47:48.297Z,2.50
2022-10-11T02:50:15.370Z,2.90
2022-10-11T02:52:42.235Z,3.10
2022-10-11T02:55:09.742Z,2.50
2022-10-11T02:57:36.473Z,3.00
2022-10-11T03:00:04.583Z,2.70
2022-10-11T03:02:31.300Z,2.90
2022-10-11T03:04:57.961Z,2.80
2022-10-11T03:07:24.677Z,2.75
2022-10-11T03:09:51.319Z,3.20
2022-10-11T03:12:17.983Z,2.97
2022-10-11T03:14:44.638Z,2.70
2022-10-11T03:17:34.610Z,3.47
2022-10-11T03:19:58.063Z,2.63
2022-10-11T03:22:24.685Z,3.10
2022-10-11T03:24:51.350Z,2.90
2022-10-11T03:27:18.099Z,2.70
2022-10-11T03:29:44.787Z,2.95
2022-10-11T03:32:11.463Z,2.40
2022-10-11T03:34:38.140Z,3.08
2022-10-11T03:37:04.807Z,3.45
2022-10-11T03:39:31.549Z,3.08
2022-10-11T03:41:58.190Z,2.72
2022-10-11T03:44:24.917Z,3.15
2022-10-11T03:46:51.611Z,2.97
2022-10-11T03:49:18.256Z,2.78
2022-10-11T03:51:44.959Z,2.80
2022-10-11T03:54:11.620Z,2.90
2022-10-11T03:56:38.327Z,2.88
2022-10-11T03:59:05.005Z,2.92
2022-10-11T04:01:35.825Z,2.88
2022-10-11T04:04:02.585Z,3.42
2022-10-11T04:06:29.348Z,3.05
2022-10-11T04:08:56.026Z,2.90
2022-10-11T04:11:22.754Z,2.80
2022-10-11T04:13:49.427Z,3.10
2022-10-11T04:16:16.201Z,2.65
2022-10-11T04:18:42.974Z,2.80
2022-10-11T04:21:09.669Z,2.67
2022-10-11T04:23:36.341Z,2.85
2022-10-11T04:26:08.045Z,3.03
2022-10-11T04:28:35.258Z,2.80
2022-10-11T04:31:04.154Z,2.83
2022-10-11T04:33:31.081Z,3.42
2022-10-11T04:35:57.780Z,3.45
2022-10-11T04:38:24.550Z,2.97
2022-10-11T04:40:51.247Z,2.70
2022-10-11T04:43:18.919Z,2.95
2022-10-11T04:45:45.942Z,3.13
2022-10-11T04:48:13.966Z,2.80
2022-10-11T04:50:40.673Z,3.60
2022-10-11T04:53:07.430Z,2.92
2022-10-11T04:55:34.151Z,3.22
2022-10-11T04:58:02.117Z,2.90
2022-10-11T05:00:28.815Z,3.35
2022-10-11T05:02:55.517Z,3.05
2022-10-11T05:05:22.190Z,2.65
2022-10-11T05:07:48.929Z,3.10
2022-10-11T05:10:15.751Z,3.30
2022-10-11T05:12:42.420Z,3.28
2022-10-11T05:15:09.537Z,3.20
2022-10-11T05:17:36.539Z,3.03
2022-10-11T05:20:04.013Z,3.17
2022-10-11T05:22:30.679Z,3.13
2022-10-11T05:24:57.328Z,2.80
2022-10-11T05:27:23.997Z,3.45
2022-10-11T05:29:50.689Z,3.42
2022-10-11T05:32:17.335Z,3.70
2022-10-11T05:34:43.997Z,3.30
2022-10-11T05:37:10.766Z,3.08
2022-10-11T05:39:37.428Z,3.03
2022-10-11T05:42:08.916Z,3.00
2022-10-11T05:44:36.543Z,3.55
2022-10-11T05:47:03.683Z,3.30
2022-10-11T05:49:30.437Z,3.50
2022-10-11T05:51:57.117Z,3.22
2022-10-11T05:54:23.802Z,3.22
2022-10-11T05:56:50.439Z,3.35
2022-10-11T05:59:17.118Z,3.20
2022-10-11T06:01:43.892Z,3.42
2022-10-11T06:04:11.761Z,3.40
2022-10-11T06:06:38.403Z,3.28
2022-10-11T06:09:05.108Z,3.38
2022-10-11T06:11:31.957Z,3.28
2022-10-11T06:13:58.749Z,3.20
2022-10-11T06:16:26.061Z,3.30
2022-10-11T06:18:54.652Z,3.35
2022-10-11T06:21:21.824Z,3.45
2022-10-11T06:23:50.661Z,3.47
2022-10-11T06:26:18.042Z,3.50
2022-10-11T06:28:44.797Z,3.30
2022-10-11T06:31:12.323Z,3.30
2022-10-11T06:33:39.610Z,3.40
2022-10-11T06:36:16.873Z,3.10
2022-10-11T06:38:45.347Z,3.35
2022-10-11T06:41:16.514Z,3.55
2022-10-11T06:43:43.283Z,3.10
2022-10-11T06:46:10.697Z,3.70
2022-10-11T06:48:41.827Z,3.28
2022-10-11T06:51:08.610Z,3.70
2022-10-11T06:53:35.367Z,3.65
2022-10-11T06:56:04.622Z,3.55
2022-10-11T06:58:31.803Z,3.40
2022-10-11T07:01:08.893Z,3.63
2022-10-11T07:03:36.050Z,3.20
2022-10-11T07:06:24.211Z,3.15
2022-10-11T07:08:51.399Z,4.50
2022-10-11T07:11:24.131Z,3.63
2022-10-11T07:13:56.304Z,3.72
2022-10-11T07:16:23.940Z,3.70
2022-10-11T07:19:00.231Z,3.72
2022-10-11T07:21:28.681Z,4.18
2022-10-11T07:23:55.389Z,4.25
2022-10-11T07:26:22.187Z,4.43
2022-10-11T07:28:49.060Z,4.30
2022-10-11T07:31:19.719Z,4.07
2022-10-11T07:33:46.951Z,4.57
2022-10-11T07:36:14.122Z,4.47
2022-10-11T07:38:46.193Z,3.90
2022-10-11T07:41:13.156Z,4.10
2022-10-11T07:43:40.132Z,4.20
2022-10-11T07:46:07.355Z,4.13
2022-10-11T07:48:35.711Z,4.35
2022-10-11T07:51:13.094Z,4.45
2022-10-11T07:53:47.453Z,4.13
2022-10-11T07:56:16.697Z,4.50
2022-10-11T07:58:43.825Z,3.60
2022-10-11T08:01:11.568Z,3.70
2022-10-11T08:04:05.698Z,3.90
2022-10-11T08:06:32.754Z,3.80
2022-10-11T08:09:01.015Z,3.60
2022-10-11T08:11:30.928Z,3.88
2022-10-11T08:13:58.290Z,4.22
2022-10-11T08:16:25.338Z,4.22
2022-10-11T08:18:52.204Z,5.05
2022-10-11T08:21:19.230Z,5.40
2022-10-11T08:23:45.970Z,6.40
2022-10-11T08:26:12.836Z,4.53
2022-10-11T08:28:39.746Z,4.90
2022-10-11T08:31:06.894Z,4.72
2022-10-11T08:33:33.620Z,4.50
2022-10-11T08:36:06.158Z,4.45
2022-10-11T08:38:33.827Z,4.15
2022-10-11T08:41:01.521Z,4.13
2022-10-11T08:44:05.150Z,4.10
2022-10-11T08:46:33.724Z,4.03
2022-10-11T08:49:02.197Z,4.70
2022-10-11T08:51:33.626Z,4.28
2022-10-11T08:54:21.006Z,3.92
2022-10-11T08:56:48.519Z,4.18
2022-10-11T08:59:26.550Z,4.28
2022-10-11T09:02:03.341Z,4.53
2022-10-11T09:04:32.253Z,4.05
2022-10-11T09:07:05.181Z,4.35
2022-10-11T09:09:43.613Z,4.63
2022-10-11T09:12:41.197Z,4.60
2022-10-11T09:15:14.747Z,3.90
2022-10-11T09:17:44.481Z,4.40
2022-10-11T09:20:46.071Z,3.92
2022-10-11T09:23:15.610Z,4.18
2022-10-11T09:25:51.471Z,4.80
2022-10-11T09:28:47.368Z,3.67
2022-10-11T09:31:14.083Z,4.28
2022-10-11T09:33:46.884Z,4.38
2022-10-11T09:36:43.022Z,3.90
2022-10-11T09:39:27.816Z,4.40
2022-10-11T09:42:03.834Z,3.80
2022-10-11T09:44:35.129Z,3.45
2022-10-11T09:47:01.865Z,3.28
2022-10-11T09:49:35.576Z,2.97
2022-10-11T09:52:03.932Z,3.15
2022-10-11T09:54:42.266Z,2.85
2022-10-11T09:57:37.270Z,3.28
2022-10-11T10:00:06.262Z,2.50
2022-10-11T10:02:44.774Z,2.50
2022-10-11T10:05:11.404Z,3.10
2022-10-11T10:07:40.925Z,2.72
2022-10-11T10:10:32.271Z,2.73
2022-10-11T10:13:01.848Z,2.90
2022-10-11T10:15:36.885Z,2.45
2022-10-11T10:18:06.616Z,2.28
2022-10-11T10:20:35.457Z,2.20
2022-10-11T10:23:09.763Z,2.20
2022-10-11T10:25:43.227Z,2.55
2022-10-11T10:28:36.834Z,2.42
2022-10-11T10:31:03.615Z,2.17
2022-10-11T10:33:34.336Z,1.90
2022-10-11T10:36:07.768Z,2.03
2022-10-11T10:38:51.883Z,2.55
2022-10-11T10:41:19.474Z,2.22
2022-10-11T10:43:54.414Z,2.58
2022-10-11T10:47:01.230Z,2.30
2022-10-11T10:49:53.998Z,2.10
2022-10-11T10:52:39.901Z,2.22
2022-10-11T10:55:12.332Z,2.53
2022-10-11T10:58:16.321Z,2.35
2022-10-11T11:00:52.033Z,1.88
2022-10-11T11:03:37.759Z,2.28
2022-10-11T11:06:07.893Z,2.08
2022-10-11T11:11:27.984Z,2.25
2022-10-11T11:14:00.270Z,2.58
2022-10-11T11:16:42.551Z,1.95
2022-10-11T11:19:25.755Z,2.35
2022-10-11T11:22:11.066Z,1.70
2022-10-11T11:24:59.758Z,2.53
2022-10-11T11:27:54.924Z,1.88
2022-10-11T11:30:27.467Z,1.63
2022-10-11T11:33:14.906Z,2.33
2022-10-11T11:35:45.114Z,2.58
2022-10-11T11:38:20.225Z,1.95
2022-10-11T11:40:54.895Z,2.28
2022-10-11T11:43:27.242Z,2.17
2022-10-11T11:46:09.551Z,2.17
2022-10-11T11:48:37.265Z,2.15
2022-10-11T11:51:12.975Z,2.08
2022-10-11T11:53:59.166Z,2.13
2022-10-11T11:56:41.968Z,2.05
2022-10-11T11:59:23.474Z,1.85
2022-10-11T12:02:35.132Z,2.00
2022-10-11T12:05:02.243Z,2.35
2022-10-11T12:07:30.087Z,2.45
2022-10-11T12:10:26.310Z,1.92
2022-10-11T12:13:31.941Z,1.85
2022-10-11T12:16:12.957Z,2.08
2022-10-11T12:18:51.661Z,2.38
2022-10-11T12:21:39.038Z,1.90
2022-10-11T12:24:24.774Z,2.03
2022-10-11T12:26:59.636Z,2.03
2022-10-11T12:29:43.705Z,2.08
2022-10-11T12:32:12.604Z,1.80
2022-10-11T12:34:42.245Z,1.83
2022-10-11T12:37:17.857Z,1.92
2022-10-11T12:39:52.777Z,1.80
2022-10-11T12:42:24.163Z,1.70
2022-10-11T12:45:16.864Z,2.47
2022-10-11T12:48:21.579Z,2.53
2022-10-11T12:51:03.245Z,2.13
2022-10-11T12:54:25.954Z,1.50
2022-10-11T12:57:25.497Z,1.98
2022-10-11T12:59:52.459Z,2.10
2022-10-11T13:02:30.733Z,1.70
2022-10-11T13:05:15.906Z,1.92
2022-10-11T13:07:43.298Z,1.90
2022-10-11T13:10:16.231Z,1.95
2022-10-11T13:12:46.144Z,2.25
2022-10-11T13:15:16.831Z,2.00
2022-10-11T13:17:43.671Z,1.70
2022-10-11T13:20:23.793Z,2.47
2022-10-11T13:22:53.739Z,1.92
2022-10-11T13:25:29.275Z,1.83
2022-10-11T13:27:59.435Z,1.83
2022-10-11T13:30:30.370Z,1.95
2022-10-11T13:32:58.766Z,1.85
2022-10-11T13:35:37.249Z,1.90
2022-10-11T13:38:07.934Z,2.17
2022-10-11T13:40:35.831Z,1.75
2022-10-11T13:43:05.606Z,1.88
2022-10-11T13:45:35.823Z,1.90
2022-10-11T13:48:02.846Z,1.52
2022-10-11T13:50:35.300Z,1.90
2022-10-11T13:53:22.231Z,2.10
2022-10-11T13:56:02.234Z,1.70
2022-10-11T13:58:40.238Z,1.88
2022-10-11T14:01:27.741Z,1.95
2022-10-11T14:04:01.250Z,1.45
2022-10-11T14:06:58.182Z,1.60
2022-10-11T14:09:36.579Z,1.80
2022-10-11T14:12:28.550Z,2.03
2022-10-11T14:14:55.297Z,2.17
2022-10-11T14:17:33.856Z,2.40
2022-10-11T14:20:15.578Z,2.17
2022-10-11T14:22:42.626Z,1.80
2022-10-11T14:25:09.551Z,1.70
2022-10-11T14:27:37.419Z,1.80
2022-10-11T14:30:31.854Z,2.40
2022-10-11T14:33:01.745Z,1.90
2022-10-11T14:35:31.904Z,1.85
2022-10-11T14:40:28.740Z,1.90
2022-10-11T14:42:55.914Z,2.15
2022-10-11T14:45:23.136Z,2.05
2022-10-11T14:47:50.397Z,1.80
2022-10-11T14:50:31.476Z,2.08
2022-10-11T14:52:58.401Z,2.20
2022-10-11T14:55:25.205Z,2.35
2022-10-11T14:57:51.917Z,1.73
2022-10-11T15:00:22.463Z,1.73
2022-10-11T15:02:50.971Z,1.83
2022-10-11T15:05:17.637Z,1.83
2022-10-11T15:07:44.488Z,1.83
2022-10-11T15:10:23.213Z,2.00
2022-10-11T15:12:51.378Z,1.60
2022-10-11T15:15:21.001Z,1.90
2022-10-11T15:17:50.004Z,1.88
2022-10-11T15:20:28.811Z,2.33
2022-10-11T15:22:56.561Z,1.80
2022-10-11T15:25:24.100Z,1.67
2022-10-11T15:27:52.156Z,2.03
2022-10-11T15:30:26.033Z,2.20
2022-10-11T15:32:53.463Z,1.88
2022-10-11T15:35:21.600Z,2.38
2022-10-11T15:37:48.582Z,2.30
2022-10-11T15:40:17.533Z,2.28
2022-10-11T15:42:44.296Z,2.20
2022-10-11T15:45:12.160Z,2.58
2022-10-11T15:47:39.091Z,2.00
2022-10-11T15:50:38.806Z,2.53
2022-10-11T15:53:11.951Z,2.20
2022-10-11T15:55:41.781Z,2.20
2022-10-11T15:58:16.362Z,1.90
2022-10-11T16:00:44.421Z,2.33
2022-10-11T16:03:13.014Z,1.90
2022-10-11T16:05:40.582Z,2.45
2022-10-11T16:08:08.026Z,2.40
2022-10-11T16:10:35.374Z,2.20
2022-10-11T16:13:02.544Z,2.15
2022-10-11T16:15:29.444Z,2.58
2022-10-11T16:17:56.238Z,2.50
2022-10-11T16:20:24.721Z,3.40
2022-10-11T16:22:54.004Z,3.22
2022-10-11T16:25:21.467Z,2.95
2022-10-11T16:27:48.280Z,2.70
2022-10-11T16:30:16.579Z,2.70
2022-10-11T16:32:44.400Z,4.30
2022-10-11T16:35:12.622Z,4.38
2022-10-11T16:37:39.511Z,3.53
2022-10-11T16:40:08.158Z,3.72
2022-10-11T16:42:35.447Z,4.20
2022-10-11T16:45:02.134Z,4.70
2022-10-11T16:47:28.921Z,5.80
2022-10-11T16:49:55.829Z,5.78
2022-10-11T16:52:22.663Z,6.25
2022-10-11T16:54:49.442Z,5.55
2022-10-11T16:57:18.215Z,6.03
2022-10-11T16:59:44.958Z,6.75
2022-10-11T17:02:26.598Z,5.10
2022-10-11T17:04:55.429Z,5.15
2022-10-11T17:07:23.193Z,5.85
2022-10-11T17:09:50.477Z,7.90
2022-10-11T17:12:20.721Z,5.00
2022-10-11T17:14:47.721Z,4.18
2022-10-11T17:17:14.659Z,4.03
2022-10-11T17:19:45.106Z,4.05
2022-10-11T17:22:16.317Z,4.40
2022-10-11T17:24:43.152Z,4.70
2022-10-11T17:27:10.029Z,5.25
2022-10-11T17:29:37.425Z,6.45
2022-10-11T17:32:04.786Z,5.75
2022-10-11T17:34:31.805Z,5.60
2022-10-11T17:36:58.620Z,5.82
2022-10-11T17:39:25.848Z,4.88
2022-10-11T17:41:52.901Z,3.70
2022-10-11T17:44:20.023Z,4.28
2022-10-11T17:46:47.237Z,4.38
2022-10-11T17:49:14.501Z,4.20
2022-10-11T17:51:41.777Z,3.58
2022-10-11T17:54:12.843Z,3.88
2022-10-11T17:56:41.647Z,3.92
2022-10-11T17:59:15.722Z,4.25
2022-10-11T18:01:42.619Z,4.65
2022-10-11T18:04:16.376Z,5.13
2022-10-11T18:06:45.188Z,6.00
2022-10-11T18:09:14.287Z,4.80
2022-10-11T18:11:41.006Z,5.60
2022-10-11T18:14:07.784Z,6.20
2022-10-11T18:16:36.084Z,7.80
2022-10-11T18:19:05.192Z,6.43
2022-10-11T18:21:34.626Z,6.30
2022-10-11T18:24:03.029Z,5.93
2022-10-11T18:26:30.994Z,5.53
2022-10-11T18:28:58.889Z,5.30
2022-10-11T18:31:28.109Z,5.63
2022-10-11T18:33:55.215Z,5.20
2022-10-11T18:36:24.594Z,5.60
2022-10-11T18:39:05.536Z,5.78
2022-10-11T18:41:33.391Z,5.30
2022-10-11T18:44:03.475Z,5.90
2022-10-11T18:46:30.651Z,6.20
2022-10-11T18:49:01.197Z,7.70
2022-10-11T18:51:34.189Z,7.38
2022-10-11T18:54:01.730Z,9.93
2022-10-11T18:56:30.248Z,12.50
2022-10-11T18:58:59.173Z,9.35
2022-10-11T19:01:31.271Z,10.30
2022-10-11T19:03:59.976Z,11.27
2022-10-11T19:06:33.214Z,17.70
2022-10-11T19:09:11.993Z,17.70
2022-10-11T19:11:39.285Z,17.77
2022-10-11T19:14:09.862Z,16.95
2022-10-11T19:16:39.499Z,12.30
2022-10-11T19:19:07.316Z,11.35
2022-10-11T19:21:34.177Z,12.32
2022-10-11T19:24:00.923Z,18.08
2022-10-11T19:26:46.447Z,14.85
2022-10-11T19:29:21.163Z,11.25
2022-10-11T19:31:50.937Z,9.82
2022-10-11T19:34:18.163Z,10.45
2022-10-11T19:36:45.225Z,9.45
2022-10-11T19:39:15.666Z,9.38
2022-10-11T19:44:10.321Z,11.75
2022-10-11T19:46:50.891Z,10.43
2022-10-11T19:49:21.518Z,10.45
2022-10-11T19:51:48.297Z,10.68
2022-10-11T19:54:15.153Z,10.25
2022-10-11T19:56:42.609Z,10.20
2022-10-11T19:59:11.039Z,11.52
2022-10-11T20:01:37.870Z,14.52
2022-10-11T20:04:07.314Z,8.60
2022-10-11T20:06:38.572Z,7.72
2022-10-11T20:09:29.530Z,8.32
2022-10-11T20:11:56.161Z,8.50
2022-10-11T20:14:22.913Z,8.65
2022-10-11T20:16:50.542Z,7.60
2022-10-11T20:19:17.652Z,7.63
2022-10-11T20:21:45.118Z,7.78
2022-10-11T20:24:12.471Z,7.13
2022-10-11T20:26:39.470Z,6.30
2022-10-11T20:29:06.863Z,5.88
2022-10-11T20:31:37.937Z,5.68
2022-10-11T20:34:07.122Z,5.53
2022-10-11T20:36:35.788Z,6.40
2022-10-11T20:39:02.568Z,6.20
2022-10-11T20:41:36.905Z,5.85
2022-10-11T20:44:04.621Z,5.07
2022-10-11T20:46:38.494Z,5.82
2022-10-11T20:49:07.762Z,5.35
2022-10-11T20:51:37.246Z,5.95
2022-10-11T20:54:04.857Z,5.80
2022-10-11T20:56:32.205Z,5.05
2022-10-11T20:58:59.616Z,5.10
2022-10-11T21:01:30.005Z,4.78
2022-10-11T21:06:24.721Z,4.65
2022-10-11T21:08:51.384Z,3.92
2022-10-11T21:11:18.047Z,3.72
2022-10-11T21:13:44.826Z,3.42
2022-10-11T21:16:14.656Z,3.58
2022-10-11T21:18:41.637Z,3.30
2022-10-11T21:21:14.725Z,3.65
2022-10-11T21:23:41.961Z,3.85
2022-10-11T21:26:11.334Z,3.78
2022-10-11T21:28:38.791Z,3.35
2022-10-11T21:31:06.499Z,3.40
2022-10-11T21:33:34.447Z,2.92
2022-10-11T21:36:09.506Z,3.25
2022-10-11T21:38:36.787Z,3.20
2022-10-11T21:41:05.021Z,4.65
2022-10-11T21:43:31.973Z,6.30
2022-10-11T21:45:58.648Z,5.10
2022-10-11T21:48:25.353Z,6.00
2022-10-11T21:50:53.602Z,7.03
2022-10-11T21:53:20.854Z,5.78
2022-10-11T21:55:47.530Z,8.70
2022-10-11T21:58:14.271Z,5.72
2022-10-11T22:00:41.008Z,5.32
2022-10-11T22:03:07.749Z,5.57
2022-10-11T22:05:34.468Z,4.93
2022-10-11T22:08:01.134Z,3.78
2022-10-11T22:10:27.914Z,4.05
2022-10-11T22:12:54.585Z,4.90
2022-10-11T22:15:21.247Z,3.70
2022-10-11T22:17:47.888Z,3.05
2022-10-11T22:20:14.706Z,3.30
2022-10-11T22:22:41.350Z,3.28
2022-10-11T22:25:08.575Z,3.55
2022-10-11T22:27:35.244Z,8.60
2022-10-11T22:30:01.967Z,8.15
2022-10-11T22:32:28.631Z,6.55
2022-10-11T22:34:55.336Z,7.15
2022-10-11T22:37:22.065Z,7.43
2022-10-11T22:39:48.757Z,7.53
2022-10-11T22:42:15.436Z,7.93
2022-10-11T22:44:43.163Z,6.07
2022-10-11T22:47:09.869Z,4.30
2022-10-11T22:49:36.552Z,3.80
2022-10-11T22:52:03.347Z,3.63
2022-10-11T22:54:30.028Z,3.53
2022-10-11T22:56:56.691Z,3.60
2022-10-11T22:59:23.419Z,3.78
2022-10-11T23:01:50.061Z,3.42
2022-10-11T23:04:20.867Z,3.13
2022-10-11T23:06:47.531Z,2.63
2022-10-11T23:09:14.501Z,2.70
2022-10-11T23:11:41.196Z,3.03
2022-10-11T23:14:07.953Z,2.80
2022-10-11T23:16:34.653Z,2.38
2022-10-11T23:19:01.361Z,2.90
2022-10-11T23:21:28.006Z,2.53
2022-10-11T23:23:55.333Z,2.70
2022-10-11T23:26:22.158Z,2.80
2022-10-11T23:28:53.201Z,2.90
2022-10-11T23:31:19.934Z,3.00
2022-10-11T23:33:47.509Z,2.83
2022-10-11T23:36:20.685Z,2.95
2022-10-11T23:38:58.125Z,3.08
2022-10-11T23:41:27.580Z,4.45
2022-10-11T23:43:54.331Z,2.80
2022-10-11T23:46:21.083Z,2.80
2022-10-11T23:48:48.123Z,2.80
2022-10-11T23:51:14.825Z,2.40
2022-10-11T23:53:41.497Z,2.75
2022-10-11T23:56:10.122Z,2.90
2022-10-11T23:58:36.765Z,2.80
